createdAt,value
2022-08-02T00:01:21.435Z,100515.34
2022-08-02T00:03:49.667Z,100503.94
2022-08-02T00:06:17.517Z,100510.25
2022-08-02T00:08:45.283Z,100516.22
2022-08-02T00:11:13.257Z,100512.91
2022-08-02T00:13:40.985Z,100511.72
2022-08-02T00:16:08.609Z,100510.88
2022-08-02T00:18:36.626Z,100509.81
2022-08-02T00:21:04.356Z,100516.62
2022-08-02T00:23:32.230Z,100507.75
2022-08-02T00:26:00.386Z,100510.12
2022-08-02T00:28:28.456Z,100508.53
2022-08-02T00:30:58.259Z,100506.72
2022-08-02T00:34:27.363Z,100515.37
2022-08-02T00:36:15.103Z,100506.41
2022-08-02T00:38:43.918Z,100503.78
2022-08-02T00:41:13.901Z,100501.13
2022-08-02T00:43:41.604Z,100502.56
2022-08-02T00:46:09.797Z,100503.06
2022-08-02T00:48:37.741Z,100504.75
2022-08-02T00:51:12.395Z,100506.72
2022-08-02T00:53:40.738Z,100502.06
2022-08-02T00:56:08.687Z,100498.28
2022-08-02T00:58:36.783Z,100498.78
2022-08-02T01:01:04.864Z,100496.72
2022-08-02T01:03:32.754Z,100500.06
2022-08-02T01:06:15.916Z,100502.16
2022-08-02T01:08:43.756Z,100510.50
2022-08-02T01:11:12.539Z,100510.16
2022-08-02T01:13:40.443Z,100504.31
2022-08-02T01:16:15.128Z,100508.28
2022-08-02T01:18:48.081Z,100504.59
2022-08-02T01:21:45.895Z,100501.94
2022-08-02T01:24:34.871Z,100517.78
2022-08-02T01:27:40.886Z,100507.13
2022-08-02T01:30:11.214Z,100506.25
2022-08-02T01:32:44.850Z,100505.72
2022-08-02T01:35:20.713Z,100511.37
2022-08-02T01:37:58.864Z,100509.72
2022-08-02T01:40:34.485Z,100504.28
2022-08-02T01:43:03.547Z,100508.16
2022-08-02T01:45:37.773Z,100512.25
2022-08-02T01:48:07.186Z,100508.06
2022-08-02T01:50:37.625Z,100505.31
2022-08-02T01:53:09.401Z,100500.59
2022-08-02T01:55:57.856Z,100507.13
2022-08-02T01:58:30.796Z,100508.00
2022-08-02T02:01:01.210Z,100506.25
2022-08-02T02:03:31.897Z,100495.69
2022-08-02T02:06:05.355Z,100498.25
2022-08-02T02:08:38.839Z,100496.69
2022-08-02T02:12:06.507Z,100494.94
2022-08-02T02:13:59.063Z,100491.91
2022-08-02T02:16:28.165Z,100489.03
2022-08-02T02:18:56.258Z,100493.03
2022-08-02T02:21:23.949Z,100493.47
2022-08-02T02:23:52.114Z,100489.41
2022-08-02T02:26:30.924Z,100497.00
2022-08-02T02:29:02.713Z,100499.97
2022-08-02T02:31:36.488Z,100501.84
2022-08-02T02:34:20.656Z,100496.34
2022-08-02T02:36:51.964Z,100497.91
2022-08-02T02:39:24.097Z,100503.88
2022-08-02T02:41:54.209Z,100500.00
2022-08-02T02:44:23.309Z,100507.41
2022-08-02T02:46:54.301Z,100502.56
2022-08-02T02:49:24.316Z,100502.88
2022-08-02T02:51:53.261Z,100507.38
2022-08-02T02:54:30.089Z,100507.50
2022-08-02T02:57:02.610Z,100506.28
2022-08-02T02:59:31.049Z,100503.41
2022-08-02T03:01:58.872Z,100511.59
2022-08-02T03:04:55.460Z,100503.84
2022-08-02T03:07:19.710Z,100506.50
2022-08-02T03:09:54.214Z,100506.06
2022-08-02T03:12:31.294Z,100508.31
2022-08-02T03:15:01.529Z,100515.13
2022-08-02T03:17:46.404Z,100511.84
2022-08-02T03:20:17.943Z,100515.59
2022-08-02T03:22:46.215Z,100520.44
2022-08-02T03:25:15.316Z,100519.34
2022-08-02T03:27:43.135Z,100521.34
2022-08-02T03:30:13.118Z,100529.75
2022-08-02T03:32:44.305Z,100526.66
2022-08-02T03:35:13.753Z,100526.22
2022-08-02T03:37:42.040Z,100526.84
2022-08-02T03:40:12.152Z,100531.06
2022-08-02T03:42:40.964Z,100535.47
2022-08-02T03:45:11.426Z,100536.13
2022-08-02T03:47:40.404Z,100531.16
2022-08-02T03:50:15.108Z,100532.28
2022-08-02T03:52:45.518Z,100532.19
2022-08-02T03:55:13.774Z,100529.19
2022-08-02T03:57:43.128Z,100532.25
2022-08-02T04:00:18.074Z,100534.09
2022-08-02T04:02:46.111Z,100535.87
2022-08-02T04:05:14.162Z,100534.84
2022-08-02T04:08:02.643Z,100535.13
2022-08-02T04:10:31.875Z,100533.22
2022-08-02T04:12:59.706Z,100536.28
2022-08-02T04:15:27.402Z,100535.47
2022-08-02T04:17:59.374Z,100535.63
2022-08-02T04:20:33.905Z,100534.25
2022-08-02T04:23:06.829Z,100538.06
2022-08-02T04:25:40.642Z,100535.78
2022-08-02T04:28:17.407Z,100548.50
2022-08-02T04:30:51.021Z,100549.78
2022-08-02T04:33:19.225Z,100539.63
2022-08-02T04:35:47.175Z,100546.06
2022-08-02T04:38:15.851Z,100554.41
2022-08-02T04:40:55.735Z,100559.03
2022-08-02T04:43:24.320Z,100556.38
2022-08-02T04:45:54.000Z,100567.97
2022-08-02T04:48:22.844Z,100564.66
2022-08-02T04:50:51.632Z,100573.38
2022-08-02T04:53:24.193Z,100569.97
2022-08-02T04:55:52.098Z,100571.84
2022-08-02T05:01:07.874Z,100577.78
2022-08-02T05:03:35.600Z,100576.28
2022-08-02T05:06:03.641Z,100578.12
2022-08-02T05:08:52.522Z,100580.97
2022-08-02T05:11:23.020Z,100582.38
2022-08-02T05:13:59.074Z,100573.53
2022-08-02T05:16:31.012Z,100583.88
2022-08-02T05:19:00.893Z,100593.91
2022-08-02T05:21:28.872Z,100590.22
2022-08-02T05:23:56.679Z,100604.16
2022-08-02T05:26:24.719Z,100601.12
2022-08-02T05:28:52.545Z,100598.16
2022-08-02T05:31:20.395Z,100602.87
2022-08-02T05:33:48.487Z,100604.47
2022-08-02T05:36:16.622Z,100604.06
2022-08-02T05:38:49.687Z,100613.50
2022-08-02T05:41:22.063Z,100615.34
2022-08-02T05:43:49.701Z,100611.47
2022-08-02T05:46:17.459Z,100616.87
2022-08-02T05:48:45.746Z,100612.88
2022-08-02T05:51:37.952Z,100615.94
2022-08-02T05:54:23.819Z,100624.22
2022-08-02T05:57:04.935Z,100620.97
2022-08-02T05:59:49.925Z,100629.50
2022-08-02T06:02:28.662Z,100634.44
2022-08-02T06:05:11.296Z,100632.28
2022-08-02T06:07:43.515Z,100639.44
2022-08-02T06:10:14.007Z,100638.78
2022-08-02T06:12:56.474Z,100647.00
2022-08-02T06:15:24.442Z,100640.78
2022-08-02T06:17:52.899Z,100640.06
2022-08-02T06:20:21.367Z,100647.75
2022-08-02T06:22:50.190Z,100642.38
2022-08-02T06:25:48.046Z,100634.75
2022-08-02T06:28:11.329Z,100642.09
2022-08-02T06:30:40.915Z,100653.09
2022-08-02T06:33:09.038Z,100648.56
2022-08-02T06:35:58.658Z,100643.66
2022-08-02T06:38:40.739Z,100648.06
2022-08-02T06:41:12.523Z,100643.22
2022-08-02T06:44:19.486Z,100650.97
2022-08-02T06:47:11.841Z,100649.72
2022-08-02T06:49:51.915Z,100650.94
2022-08-02T06:52:31.664Z,100658.59
2022-08-02T06:55:01.910Z,100657.06
2022-08-02T06:57:30.846Z,100660.94
2022-08-02T07:00:01.857Z,100655.09
2022-08-02T07:02:31.350Z,100654.03
2022-08-02T07:04:59.243Z,100655.97
2022-08-02T07:07:28.042Z,100646.34
2022-08-02T07:10:01.461Z,100646.31
2022-08-02T07:12:31.214Z,100639.09
2022-08-02T07:15:00.536Z,100625.66
2022-08-02T07:17:29.106Z,100635.59
2022-08-02T07:19:57.623Z,100623.72
2022-08-02T07:22:27.539Z,100626.03
2022-08-02T07:24:57.548Z,100633.31
2022-08-02T07:27:25.719Z,100626.41
2022-08-02T07:29:54.816Z,100623.75
2022-08-02T07:32:25.828Z,100631.03
2022-08-02T07:34:55.168Z,100628.72
2022-08-02T07:37:54.230Z,100624.50
2022-08-02T07:40:20.048Z,100623.34
2022-08-02T07:42:52.328Z,100627.91
2022-08-02T07:45:21.771Z,100633.69
2022-08-02T07:47:50.508Z,100632.16
2022-08-02T07:50:21.393Z,100624.88
2022-08-02T07:52:49.492Z,100632.56
2022-08-02T07:55:39.993Z,100627.91
2022-08-02T07:58:11.485Z,100620.25
2022-08-02T08:00:45.119Z,100633.22
2022-08-02T08:03:13.388Z,100636.41
2022-08-02T08:05:41.363Z,100632.47
2022-08-02T08:08:15.281Z,100636.28
2022-08-02T08:10:46.839Z,100640.91
2022-08-02T08:13:15.642Z,100635.44
2022-08-02T08:15:50.045Z,100638.97
2022-08-02T08:18:22.978Z,100641.59
2022-08-02T08:20:51.847Z,100634.75
2022-08-02T08:23:19.904Z,100633.81
2022-08-02T08:25:48.416Z,100633.59
2022-08-02T08:28:16.185Z,100634.78
2022-08-02T08:30:44.211Z,100633.03
2022-08-02T08:33:11.841Z,100634.72
2022-08-02T08:35:39.809Z,100638.13
2022-08-02T08:38:08.691Z,100631.13
2022-08-02T08:40:37.243Z,100626.84
2022-08-02T08:43:05.613Z,100632.38
2022-08-02T08:45:33.675Z,100620.00
2022-08-02T08:48:15.789Z,100626.22
2022-08-02T08:51:07.496Z,100624.22
2022-08-02T08:53:42.419Z,100626.81
2022-08-02T08:56:15.971Z,100619.84
2022-08-02T08:58:47.581Z,100629.09
2022-08-02T09:01:17.211Z,100623.47
2022-08-02T09:03:45.632Z,100622.88
2022-08-02T09:06:13.296Z,100611.03
2022-08-02T09:08:41.294Z,100620.41
2022-08-02T09:11:25.693Z,100625.81
2022-08-02T09:13:59.011Z,100630.31
2022-08-02T09:16:38.719Z,100621.38
2022-08-02T09:19:23.531Z,100624.47
2022-08-02T09:22:02.524Z,100626.53
2022-08-02T09:24:44.951Z,100627.56
2022-08-02T09:27:14.864Z,100617.28
2022-08-02T09:30:11.614Z,100620.13
2022-08-02T09:32:48.455Z,100609.87
2022-08-02T09:36:07.355Z,100621.97
2022-08-02T09:38:37.195Z,100623.06
2022-08-02T09:41:06.703Z,100617.38
2022-08-02T09:43:51.842Z,100624.94
2022-08-02T09:46:33.542Z,100618.91
2022-08-02T09:49:03.891Z,100618.94
2022-08-02T09:51:34.829Z,100616.28
2022-08-02T09:54:08.765Z,100623.03
2022-08-02T09:56:47.981Z,100616.06
2022-08-02T09:59:17.551Z,100612.31
2022-08-02T10:01:51.266Z,100605.97
2022-08-02T10:04:34.151Z,100612.31
2022-08-02T10:07:05.051Z,100610.69
2022-08-02T10:09:34.547Z,100608.56
2022-08-02T10:12:03.456Z,100603.37
2022-08-02T10:14:35.088Z,100601.06
2022-08-02T10:17:05.118Z,100597.31
2022-08-02T10:20:00.032Z,100590.72
2022-08-02T10:22:23.784Z,100598.03
2022-08-02T10:24:52.178Z,100593.37
2022-08-02T10:27:21.333Z,100593.34
2022-08-02T10:29:55.067Z,100601.47
2022-08-02T10:32:38.009Z,100599.91
2022-08-02T10:35:25.323Z,100597.84
2022-08-02T10:38:03.466Z,100591.88
2022-08-02T10:40:46.804Z,100591.03
2022-08-02T10:43:37.278Z,100592.56
2022-08-02T10:46:30.353Z,100590.44
2022-08-02T10:52:02.493Z,100590.97
2022-08-02T10:54:37.526Z,100587.41
2022-08-02T10:57:27.857Z,100578.91
2022-08-02T11:00:19.408Z,100587.97
2022-08-02T11:02:53.146Z,100583.50
2022-08-02T11:05:29.068Z,100582.81
2022-08-02T11:08:20.283Z,100583.56
2022-08-02T11:10:48.237Z,100577.34
2022-08-02T11:13:19.758Z,100581.03
2022-08-02T11:16:06.476Z,100586.66
2022-08-02T11:18:51.141Z,100586.22
2022-08-02T11:21:24.889Z,100580.47
2022-08-02T11:23:53.206Z,100576.00
2022-08-02T11:26:32.841Z,100578.16
2022-08-02T11:29:02.024Z,100574.94
2022-08-02T11:31:30.700Z,100572.69
2022-08-02T11:33:58.569Z,100566.78
2022-08-02T11:36:27.261Z,100575.19
2022-08-02T11:39:12.675Z,100569.53
2022-08-02T11:41:52.596Z,100567.13
2022-08-02T11:44:23.367Z,100564.94
2022-08-02T11:47:02.934Z,100574.22
2022-08-02T11:49:31.145Z,100572.75
2022-08-02T11:52:06.899Z,100576.50
2022-08-02T11:54:37.894Z,100581.31
2022-08-02T11:57:24.038Z,100568.63
2022-08-02T11:59:55.934Z,100577.13
2022-08-02T12:02:25.550Z,100568.50
2022-08-02T12:04:58.980Z,100564.09
2022-08-02T12:07:35.283Z,100565.50
2022-08-02T12:10:07.834Z,100562.19
2022-08-02T12:12:49.087Z,100562.94
2022-08-02T12:15:35.761Z,100567.31
2022-08-02T12:18:27.341Z,100556.63
2022-08-02T12:20:55.407Z,100546.75
2022-08-02T12:23:23.403Z,100552.16
2022-08-02T12:26:05.182Z,100557.34
2022-08-02T12:28:39.213Z,100557.31
2022-08-02T12:31:14.228Z,100553.50
2022-08-02T12:33:47.974Z,100553.81
2022-08-02T12:36:20.986Z,100544.53
2022-08-02T12:38:56.755Z,100542.81
2022-08-02T12:41:30.861Z,100547.03
2022-08-02T12:44:00.736Z,100541.38
2022-08-02T12:46:28.484Z,100543.91
2022-08-02T12:49:16.572Z,100540.31
2022-08-02T12:51:51.036Z,100535.34
2022-08-02T12:54:38.486Z,100543.00
2022-08-02T12:57:13.865Z,100539.53
2022-08-02T12:59:44.626Z,100533.72
2022-08-02T13:02:14.782Z,100532.06
2022-08-02T13:04:49.943Z,100529.38
2022-08-02T13:07:19.448Z,100528.28
2022-08-02T13:09:48.483Z,100533.44
2022-08-02T13:12:17.058Z,100533.00
2022-08-02T13:14:45.276Z,100532.84
2022-08-02T13:17:12.914Z,100519.59
2022-08-02T13:19:42.942Z,100521.47
2022-08-02T13:22:10.975Z,100521.13
2022-08-02T13:24:56.022Z,100524.34
2022-08-02T13:27:26.900Z,100518.97
2022-08-02T13:29:58.435Z,100521.03
2022-08-02T13:32:28.938Z,100521.13
2022-08-02T13:34:57.886Z,100515.19
2022-08-02T13:37:26.117Z,100514.38
2022-08-02T13:40:20.073Z,100517.38
2022-08-02T13:42:45.326Z,100514.25
2022-08-02T13:45:14.324Z,100500.03
2022-08-02T13:47:57.422Z,100504.91
2022-08-02T13:50:32.108Z,100510.34
2022-08-02T13:52:59.819Z,100510.12
2022-08-02T13:55:28.199Z,100510.78
2022-08-02T13:57:57.126Z,100510.50
2022-08-02T14:00:35.011Z,100514.87
2022-08-02T14:03:08.581Z,100515.69
2022-08-02T14:05:48.201Z,100516.69
2022-08-02T14:08:20.794Z,100521.38
2022-08-02T14:10:49.774Z,100516.13
2022-08-02T14:13:18.635Z,100527.47
2022-08-02T14:15:47.158Z,100518.56
2022-08-02T14:18:15.517Z,100522.69
2022-08-02T14:20:45.108Z,100516.47
2022-08-02T14:23:12.951Z,100519.91
2022-08-02T14:25:40.675Z,100513.81
2022-08-02T14:28:08.855Z,100515.37
2022-08-02T14:30:36.666Z,100513.41
2022-08-02T14:33:04.361Z,100518.37
2022-08-02T14:35:32.506Z,100511.25
2022-08-02T14:38:00.665Z,100514.44
2022-08-02T14:40:31.379Z,100519.88
2022-08-02T14:43:01.347Z,100517.19
2022-08-02T14:45:39.789Z,100516.62
2022-08-02T14:48:12.628Z,100513.88
2022-08-02T14:50:40.730Z,100522.94
2022-08-02T14:53:12.459Z,100516.22
2022-08-02T14:55:42.607Z,100511.16
2022-08-02T14:58:11.348Z,100511.13
2022-08-02T15:00:41.174Z,100500.88
2022-08-02T15:03:11.006Z,100511.31
2022-08-02T15:05:39.613Z,100520.22
2022-08-02T15:08:07.340Z,100509.88
2022-08-02T15:10:35.491Z,100506.06
2022-08-02T15:13:03.197Z,100522.53
2022-08-02T15:15:30.873Z,100513.19
2022-08-02T15:17:58.887Z,100510.56
2022-08-02T15:20:28.681Z,100519.91
2022-08-02T15:22:56.450Z,100524.97
2022-08-02T15:25:26.175Z,100510.69
2022-08-02T15:27:53.860Z,100520.31
2022-08-02T15:30:21.571Z,100521.84
2022-08-02T15:32:53.177Z,100516.06
2022-08-02T15:35:21.743Z,100514.06
2022-08-02T15:37:49.835Z,100522.59
2022-08-02T15:40:17.744Z,100519.50
2022-08-02T15:42:45.473Z,100516.53
2022-08-02T15:45:15.749Z,100521.22
2022-08-02T15:47:50.332Z,100513.78
2022-08-02T15:50:18.938Z,100521.16
2022-08-02T15:52:47.293Z,100516.44
2022-08-02T15:55:15.238Z,100518.78
2022-08-02T15:57:43.456Z,100523.78
2022-08-02T16:00:18.165Z,100526.94
2022-08-02T16:02:48.058Z,100521.97
2022-08-02T16:05:18.203Z,100518.78
2022-08-02T16:07:46.854Z,100523.88
2022-08-02T16:10:16.334Z,100517.34
2022-08-02T16:12:44.041Z,100528.78
2022-08-02T16:15:12.771Z,100521.03
2022-08-02T16:17:51.768Z,100527.75
2022-08-02T16:20:22.732Z,100519.69
2022-08-02T16:22:50.810Z,100529.31
2022-08-02T16:25:18.525Z,100524.31
2022-08-02T16:28:06.591Z,100531.59
2022-08-02T16:30:34.818Z,100541.97
2022-08-02T16:33:02.583Z,100538.91
2022-08-02T16:35:30.274Z,100543.50
2022-08-02T16:37:58.524Z,100538.13
2022-08-02T16:40:26.512Z,100542.75
2022-08-02T16:42:54.285Z,100545.06
2022-08-02T16:45:22.858Z,100540.47
2022-08-02T16:47:56.130Z,100543.88
2022-08-02T16:50:28.393Z,100541.22
2022-08-02T16:52:58.358Z,100548.16
2022-08-02T16:55:29.224Z,100547.38
2022-08-02T17:00:49.037Z,100550.81
2022-08-02T17:03:16.841Z,100554.66
2022-08-02T17:05:55.928Z,100549.31
2022-08-02T17:08:31.768Z,100548.53
2022-08-02T17:11:03.577Z,100547.00
2022-08-02T17:13:34.351Z,100552.34
2022-08-02T17:16:26.028Z,100553.47
2022-08-02T17:18:55.448Z,100550.00
2022-08-02T17:21:23.287Z,100551.59
2022-08-02T17:24:05.286Z,100556.06
2022-08-02T17:26:37.683Z,100555.03
2022-08-02T17:29:15.362Z,100556.16
2022-08-02T17:32:04.873Z,100547.34
2022-08-02T17:34:36.223Z,100555.37
2022-08-02T17:37:05.899Z,100559.56
2022-08-02T17:39:43.101Z,100561.75
2022-08-02T17:42:20.271Z,100567.22
2022-08-02T17:44:53.291Z,100573.34
2022-08-02T17:47:21.920Z,100570.28
2022-08-02T17:49:52.553Z,100567.91
2022-08-02T17:52:50.419Z,100574.50
2022-08-02T17:55:13.384Z,100574.47
2022-08-02T17:57:56.966Z,100579.41
2022-08-02T18:00:45.343Z,100586.75
2022-08-02T18:03:13.328Z,100592.06
2022-08-02T18:05:53.546Z,100593.25
2022-08-02T18:08:24.306Z,100591.25
2022-08-02T18:10:53.903Z,100590.03
2022-08-02T18:13:21.883Z,100597.78
2022-08-02T18:15:59.434Z,100597.00
2022-08-02T18:18:29.649Z,100593.56
2022-08-02T18:21:15.854Z,100593.81
2022-08-02T18:23:49.567Z,100596.50
2022-08-02T18:26:28.375Z,100603.78
2022-08-02T18:28:57.888Z,100610.59
2022-08-02T18:31:27.133Z,100608.19
2022-08-02T18:34:01.863Z,100618.47
2022-08-02T18:36:31.595Z,100626.72
2022-08-02T18:39:08.327Z,100628.25
2022-08-02T18:41:36.651Z,100625.75
2022-08-02T18:44:06.039Z,100629.87
2022-08-02T18:46:33.705Z,100628.06
2022-08-02T18:49:06.791Z,100627.25
2022-08-02T18:51:41.324Z,100632.63
2022-08-02T18:54:10.006Z,100637.22
2022-08-02T18:56:38.862Z,100629.12
2022-08-02T18:59:07.455Z,100626.69
2022-08-02T19:01:42.399Z,100634.00
2022-08-02T19:04:27.607Z,100635.38
2022-08-02T19:07:03.995Z,100639.28
2022-08-02T19:09:40.035Z,100634.03
2022-08-02T19:12:11.528Z,100640.13
2022-08-02T19:14:40.124Z,100635.78
2022-08-02T19:17:15.672Z,100643.41
2022-08-02T19:19:44.565Z,100643.34
2022-08-02T19:22:17.525Z,100647.22
2022-08-02T19:24:50.398Z,100654.03
2022-08-02T19:27:32.019Z,100645.75
2022-08-02T19:30:03.185Z,100645.41
2022-08-02T19:32:42.938Z,100642.19
2022-08-02T19:35:30.410Z,100648.16
2022-08-02T19:38:11.237Z,100653.13
2022-08-02T19:40:41.916Z,100641.28
2022-08-02T19:44:26.325Z,100637.78
2022-08-02T19:45:59.140Z,100638.88
2022-08-02T19:48:28.283Z,100637.78
2022-08-02T19:50:59.437Z,100632.09
2022-08-02T19:53:46.891Z,100639.81
2022-08-02T19:56:20.476Z,100638.75
2022-08-02T19:58:54.383Z,100634.88
2022-08-02T20:01:37.392Z,100633.97
2022-08-02T20:04:12.765Z,100630.72
2022-08-02T20:06:47.528Z,100625.66
2022-08-02T20:09:21.323Z,100628.44
2022-08-02T20:11:54.237Z,100625.47
2022-08-02T20:14:27.123Z,100632.41
2022-08-02T20:16:57.048Z,100631.22
2022-08-02T20:19:28.890Z,100633.78
2022-08-02T20:21:59.513Z,100628.25
2022-08-02T20:24:29.741Z,100624.84
2022-08-02T20:26:58.940Z,100628.19
2022-08-02T20:29:43.933Z,100629.72
2022-08-02T20:32:23.387Z,100619.84
2022-08-02T20:34:52.760Z,100617.97
2022-08-02T20:38:02.286Z,100619.50
2022-08-02T20:40:16.772Z,100619.66
2022-08-02T20:42:47.864Z,100614.56
2022-08-02T20:45:20.534Z,100619.50
2022-08-02T20:47:52.406Z,100620.13
2022-08-02T20:50:42.542Z,100624.59
2022-08-02T20:53:23.720Z,100625.72
2022-08-02T20:55:54.725Z,100625.62
2022-08-02T20:58:26.443Z,100634.81
2022-08-02T21:00:59.258Z,100624.97
2022-08-02T21:03:38.961Z,100625.31
2022-08-02T21:06:15.032Z,100631.69
2022-08-02T21:08:46.099Z,100626.91
2022-08-02T21:11:14.444Z,100626.00
2022-08-02T21:13:47.445Z,100626.22
2022-08-02T21:16:30.665Z,100639.25
2022-08-02T21:19:00.174Z,100638.00
2022-08-02T21:21:29.705Z,100637.31
2022-08-02T21:24:00.071Z,100637.31
2022-08-02T21:26:31.133Z,100640.97
2022-08-02T21:29:04.009Z,100635.59
2022-08-02T21:31:36.535Z,100634.50
2022-08-02T21:34:21.686Z,100634.84
2022-08-02T21:36:53.835Z,100629.16
2022-08-02T21:39:23.050Z,100632.25
2022-08-02T21:41:50.803Z,100639.91
2022-08-02T21:44:20.116Z,100641.00
2022-08-02T21:46:50.100Z,100651.25
2022-08-02T21:49:20.038Z,100643.66
2022-08-02T21:51:49.674Z,100645.19
2022-08-02T21:54:20.839Z,100641.75
2022-08-02T21:56:53.521Z,100641.75
2022-08-02T21:59:25.768Z,100646.56
2022-08-02T22:01:56.879Z,100645.62
2022-08-02T22:04:26.342Z,100645.38
2022-08-02T22:06:55.714Z,100644.53
2022-08-02T22:09:42.861Z,100645.41
2022-08-02T22:12:18.347Z,100642.97
2022-08-02T22:14:54.042Z,100641.97
2022-08-02T22:17:50.437Z,100643.25
2022-08-02T22:20:20.245Z,100648.81
2022-08-02T22:22:50.406Z,100652.16
2022-08-02T22:25:26.546Z,100651.06
2022-08-02T22:28:37.247Z,100647.25
2022-08-02T22:31:04.432Z,100651.25
2022-08-02T22:34:00.143Z,100652.88
2022-08-02T22:36:31.285Z,100653.50
2022-08-02T22:39:00.305Z,100661.81
2022-08-02T22:42:00.121Z,100656.81
2022-08-02T22:44:18.489Z,100659.25
2022-08-02T22:46:47.057Z,100650.09
2022-08-02T22:49:37.898Z,100647.59
2022-08-02T22:52:07.500Z,100657.97
2022-08-02T22:54:35.750Z,100646.87
2022-08-02T22:57:03.455Z,100652.06
2022-08-02T22:58:51.464Z,100544.31
2022-08-02T22:59:39.041Z,100649.56
2022-08-02T23:02:09.502Z,100650.13
2022-08-02T23:04:37.998Z,100655.19
2022-08-02T23:07:05.908Z,100654.37
2022-08-02T23:09:34.021Z,100659.31
2022-08-02T23:12:01.750Z,100661.75
2022-08-02T23:14:29.462Z,100658.00
2022-08-02T23:17:16.259Z,100658.41
2022-08-02T23:19:53.227Z,100653.28
2022-08-02T23:22:29.969Z,100646.31
2022-08-02T23:25:01.405Z,100647.28
2022-08-02T23:27:30.809Z,100649.69
2022-08-02T23:30:00.268Z,100653.09
2022-08-02T23:32:28.377Z,100659.81
2022-08-02T23:34:57.629Z,100661.78
2022-08-02T23:37:25.525Z,100660.19
2022-08-02T23:39:53.482Z,100650.13
2022-08-02T23:42:23.352Z,100658.78
2022-08-02T23:44:51.936Z,100662.72
2022-08-02T23:47:19.969Z,100656.22
2022-08-02T23:49:48.065Z,100660.84
2022-08-02T23:52:15.887Z,100658.50
2022-08-02T23:54:43.603Z,100662.91
2022-08-02T23:57:20.654Z,100653.06
2022-08-02T23:59:51.427Z,100655.16
